Pagrindinis puslapis
METAR-TAF:

METAR-TAF

Oro uostai :

Skelton Airport

Eureka, Aliaska, Jungtinės Amerikos Valstijos

platuma: 61-56N, ilguma: 147-10W, Aukštis: 1002 m

Dabartinis oras

Ataskaita buvo paskelbta 50 minutes, ne 20:04 UTC
Vėjas 3 kt iš Šiaurės/Šiaurės Rytų
Temperatūra -8°C
Drėgmė 92%
Slėgis 1011 hPa
Matomumas: 16.1 km
Išsisklaidę debesys ne aukštis 400 ft
Su prošvaistėmis ne aukštis 1600 ft

METAR: PAZK 282004Z AUTO 03003KT 10SM SCT004 BKN016 M08/M09 A2986 RMK AO2 FZRANO

Laikas: 12:54 (20:54 UTC)


TAF: trūkstamas

Orai ataskaitas ir orų prognozės (METAR, TAF).

turimą stotys yra geltonos ir raudonos taškus žemėlapyje.

Perkelti pele per norėdami pamatyti stoties vardą.

Tada spustelėkite, norėdami matyti oro stebėjimo ir prognozės.

Norėdami pakeisti žemėlapį: spustelėkite ant žalios mygtukų su juodo kryžiaus žemyn,; žalią mygtuką su brūkšneliu, jei norite nutolinti; arba žalių rodyklių gretimoms žemėlapius.


METAR-TAF: